createdAt,value
2023-03-04T00:00:55.958Z,0.61
2023-03-04T00:05:57.305Z,0.62
2023-03-04T00:10:58.616Z,0.47
2023-03-04T00:15:59.985Z,0.57
2023-03-04T00:21:01.444Z,0.44
2023-03-04T00:26:02.901Z,0.56
2023-03-04T00:31:04.433Z,0.58
2023-03-04T00:36:05.985Z,0.69
2023-03-04T00:41:07.320Z,0.52
2023-03-04T00:46:08.680Z,0.48
2023-03-04T00:51:10.077Z,0.68
2023-03-04T00:56:11.393Z,0.49
2023-03-04T01:01:12.706Z,0.62
2023-03-04T01:06:14.077Z,0.73
2023-03-04T01:11:15.503Z,1.08
2023-03-04T01:16:17.033Z,0.67
2023-03-04T01:21:18.441Z,0.59
2023-03-04T01:26:19.839Z,0.80
2023-03-04T01:31:21.200Z,0.90
2023-03-04T01:36:22.690Z,0.92
2023-03-04T01:41:25.678Z,1.08
2023-03-04T01:46:27.179Z,1.10
2023-03-04T01:51:28.610Z,1.16
2023-03-04T01:56:34.503Z,1.04
2023-03-04T02:01:36.564Z,1.02
2023-03-04T02:06:38.833Z,0.91
2023-03-04T02:11:40.786Z,1.27
2023-03-04T02:16:42.285Z,1.07
2023-03-04T02:21:43.622Z,1.22
2023-03-04T02:26:45.624Z,1.21
2023-03-04T02:31:48.062Z,1.19
2023-03-04T02:36:51.361Z,1.40
2023-03-04T02:41:53.638Z,1.21
2023-03-04T02:46:55.463Z,1.28
2023-03-04T02:52:06.372Z,1.16
2023-03-04T02:57:08.877Z,1.28
2023-03-04T03:02:10.325Z,1.38
2023-03-04T03:07:11.772Z,1.43
2023-03-04T03:12:13.153Z,1.54
2023-03-04T03:17:14.495Z,1.46
2023-03-04T03:22:15.913Z,1.34
2023-03-04T03:27:17.393Z,1.33
2023-03-04T03:32:18.748Z,1.57
2023-03-04T03:37:20.143Z,1.66
2023-03-04T03:42:21.728Z,1.58
2023-03-04T03:47:23.334Z,1.49
2023-03-04T03:52:24.780Z,1.45
2023-03-04T03:57:26.364Z,1.82
2023-03-04T04:02:27.833Z,1.59
2023-03-04T04:07:29.374Z,1.61
2023-03-04T04:12:30.725Z,1.80
2023-03-04T04:17:32.211Z,1.67
2023-03-04T04:22:33.643Z,1.77
2023-03-04T04:27:34.974Z,1.93
2023-03-04T04:32:36.676Z,2.14
2023-03-04T04:37:38.241Z,2.22
2023-03-04T04:42:39.760Z,2.08
2023-03-04T04:47:41.168Z,2.06
2023-03-04T04:52:42.616Z,2.26
2023-03-04T04:57:44.099Z,2.06
2023-03-04T05:02:45.460Z,2.10
2023-03-04T05:07:46.777Z,2.13
2023-03-04T05:12:48.113Z,1.97
2023-03-04T05:17:49.626Z,2.24
2023-03-04T05:22:51.131Z,2.20
2023-03-04T05:27:52.648Z,1.87
2023-03-04T05:32:54.126Z,2.25
2023-03-04T05:37:55.611Z,2.33
2023-03-04T05:42:57.126Z,2.21
2023-03-04T05:47:58.580Z,2.12
2023-03-04T05:53:00.114Z,2.21
2023-03-04T05:58:01.726Z,2.27
2023-03-04T06:03:03.337Z,2.17
2023-03-04T06:08:04.904Z,2.39
2023-03-04T06:13:06.384Z,2.23
2023-03-04T06:18:07.939Z,2.33
2023-03-04T06:23:09.296Z,2.19
2023-03-04T06:28:10.658Z,2.29
2023-03-04T06:33:12.123Z,2.44
2023-03-04T06:38:13.452Z,2.65
2023-03-04T06:43:14.927Z,2.65
2023-03-04T06:48:16.404Z,2.26
2023-03-04T06:53:17.817Z,2.47
2023-03-04T06:58:19.194Z,2.47
2023-03-04T07:03:21.005Z,2.67
2023-03-04T07:08:22.407Z,2.84
2023-03-04T07:13:23.835Z,2.84
2023-03-04T07:18:25.243Z,2.65
2023-03-04T07:23:26.824Z,2.85
2023-03-04T07:28:28.345Z,2.65
2023-03-04T07:33:29.669Z,2.76
2023-03-04T07:38:31.026Z,3.02
2023-03-04T07:43:32.468Z,2.86
2023-03-04T07:48:34.107Z,3.15
2023-03-04T07:53:35.897Z,3.10
2023-03-04T07:58:37.209Z,3.11
2023-03-04T08:03:38.760Z,3.13
2023-03-04T08:08:45.425Z,3.31
2023-03-04T08:13:47.026Z,3.52
2023-03-04T08:18:50.010Z,3.52
2023-03-04T08:23:51.916Z,3.47
2023-03-04T08:28:53.888Z,3.54
2023-03-04T08:33:55.283Z,3.62
2023-03-04T08:38:56.643Z,3.63
2023-03-04T08:43:58.551Z,3.59
2023-03-04T08:48:59.919Z,3.80
2023-03-04T08:54:04.410Z,3.85
2023-03-04T08:59:05.862Z,4.02
2023-03-04T09:04:07.392Z,3.93
2023-03-04T09:09:09.025Z,3.99
2023-03-04T09:14:10.469Z,4.04
2023-03-04T09:19:11.880Z,4.16
2023-03-04T09:24:13.253Z,4.20
2023-03-04T09:29:14.563Z,4.31
2023-03-04T09:34:16.468Z,4.54
2023-03-04T09:39:17.848Z,4.53
2023-03-04T09:44:31.053Z,4.67
2023-03-04T09:49:32.511Z,4.55
2023-03-04T09:54:33.824Z,4.52
2023-03-04T09:59:44.796Z,4.57
2023-03-04T10:04:51.457Z,4.71
2023-03-04T10:10:19.022Z,4.89
2023-03-04T10:15:46.434Z,5.10
2023-03-04T10:20:56.954Z,5.06
2023-03-04T10:25:59.554Z,4.93
2023-03-04T10:31:19.163Z,5.17
2023-03-04T10:36:29.811Z,5.17
2023-03-04T10:41:31.859Z,5.21
2023-03-04T10:46:33.462Z,4.83
2023-03-04T10:51:47.039Z,5.27
2023-03-04T10:56:54.160Z,5.28
2023-03-04T11:01:55.602Z,5.27
2023-03-04T11:06:57.001Z,5.26
2023-03-04T11:12:02.469Z,5.25
2023-03-04T11:17:24.091Z,5.18
2023-03-04T11:22:27.611Z,5.05
2023-03-04T11:27:38.404Z,5.25
2023-03-04T11:32:42.184Z,5.37
2023-03-04T11:38:02.455Z,5.42
2023-03-04T11:43:12.775Z,5.40
2023-03-04T11:48:14.200Z,5.61
2023-03-04T11:53:29.315Z,5.59
2023-03-04T11:58:30.652Z,5.52
2023-03-04T12:03:35.142Z,5.64
2023-03-04T12:08:47.750Z,5.77
2023-03-04T12:14:01.963Z,5.58
2023-03-04T12:19:06.058Z,5.92
2023-03-04T12:24:26.871Z,5.82
2023-03-04T12:29:51.669Z,5.94
2023-03-04T12:35:11.657Z,5.78
2023-03-04T12:40:24.889Z,5.99
2023-03-04T12:45:45.086Z,5.92
2023-03-04T12:50:49.450Z,5.93
2023-03-04T12:55:52.478Z,6.16
2023-03-04T13:01:03.158Z,6.03
2023-03-04T13:06:24.803Z,6.30
2023-03-04T13:11:26.115Z,6.31
2023-03-04T13:16:39.709Z,6.34
2023-03-04T13:21:46.402Z,6.22
2023-03-04T13:26:47.805Z,6.25
2023-03-04T13:31:59.542Z,6.28
2023-03-04T13:37:00.908Z,6.28
2023-03-04T13:42:03.086Z,6.59
2023-03-04T13:47:27.407Z,6.45
2023-03-04T13:52:41.829Z,6.47
2023-03-04T13:57:48.815Z,6.57
2023-03-04T14:02:50.185Z,6.44
2023-03-04T14:07:51.688Z,6.60
2023-03-04T14:12:54.585Z,6.19
2023-03-04T14:17:57.561Z,6.07
2023-03-04T14:23:00.154Z,6.43
2023-03-04T14:28:12.120Z,6.47
2023-03-04T14:33:18.697Z,6.56
2023-03-04T14:38:24.822Z,6.26
2023-03-04T14:43:27.571Z,6.48
2023-03-04T14:48:31.008Z,6.55
2023-03-04T14:53:33.225Z,6.54
2023-03-04T14:58:34.546Z,6.52
2023-03-04T15:03:35.995Z,6.49
2023-03-04T15:08:38.392Z,6.44
2023-03-04T15:13:41.448Z,6.48
2023-03-04T15:18:59.893Z,6.47
2023-03-04T15:24:01.376Z,6.36
2023-03-04T15:29:17.488Z,6.41
2023-03-04T15:34:21.301Z,6.36
2023-03-04T15:39:22.701Z,6.58
2023-03-04T15:44:24.624Z,6.53
2023-03-04T15:49:25.999Z,6.63
2023-03-04T15:54:28.508Z,6.61
2023-03-04T15:59:29.818Z,6.61
2023-03-04T16:04:31.209Z,6.60
2023-03-04T16:09:32.634Z,6.56
2023-03-04T16:14:34.234Z,6.42
2023-03-04T16:19:35.545Z,6.53
2023-03-04T16:24:37.067Z,6.56
2023-03-04T16:29:38.483Z,6.59
2023-03-04T16:34:39.885Z,6.56
2023-03-04T16:39:42.039Z,6.53
2023-03-04T16:44:43.437Z,6.36
2023-03-04T16:49:44.916Z,6.23
2023-03-04T16:54:46.499Z,6.13
2023-03-04T16:59:47.928Z,6.08
2023-03-04T17:04:50.267Z,6.07
2023-03-04T17:09:52.682Z,6.06
2023-03-04T17:14:54.056Z,6.01
2023-03-04T17:19:55.409Z,6.00
2023-03-04T17:24:56.828Z,5.97
2023-03-04T17:29:58.344Z,5.94
2023-03-04T17:35:00.088Z,5.91
2023-03-04T17:40:02.677Z,5.90
2023-03-04T17:45:04.314Z,5.91
2023-03-04T17:50:06.033Z,5.91
2023-03-04T17:55:07.703Z,5.86
2023-03-04T18:00:09.449Z,5.89
2023-03-04T18:05:10.932Z,5.87
2023-03-04T18:10:12.416Z,5.89
2023-03-04T18:15:13.838Z,5.88
2023-03-04T18:20:15.289Z,5.85
2023-03-04T18:25:16.761Z,5.85
2023-03-04T18:30:18.464Z,5.83
2023-03-04T18:35:20.650Z,5.83
2023-03-04T18:40:22.064Z,5.81
2023-03-04T18:45:23.448Z,5.81
2023-03-04T18:50:24.954Z,5.77
2023-03-04T18:55:26.612Z,5.77
2023-03-04T19:00:28.856Z,5.80
2023-03-04T19:05:31.804Z,5.75
2023-03-04T19:10:33.192Z,5.72
2023-03-04T19:15:35.752Z,5.70
2023-03-04T19:20:37.087Z,5.75
2023-03-04T19:25:39.225Z,5.70
2023-03-04T19:30:40.757Z,5.63
2023-03-04T19:35:43.096Z,5.66
2023-03-04T19:40:44.727Z,5.71
2023-03-04T19:45:53.328Z,5.66
2023-03-04T19:50:54.706Z,5.77
2023-03-04T19:55:56.043Z,5.74
2023-03-04T20:00:57.439Z,5.79
2023-03-04T20:06:06.588Z,5.88
2023-03-04T20:11:11.902Z,6.02
2023-03-04T20:16:13.957Z,5.98
2023-03-04T20:21:15.678Z,6.03
2023-03-04T20:26:17.179Z,6.08
2023-03-04T20:31:20.546Z,5.97
2023-03-04T20:36:23.215Z,5.93
2023-03-04T20:41:25.495Z,6.06
2023-03-04T20:46:45.846Z,6.03
2023-03-04T20:51:47.836Z,6.03
2023-03-04T20:56:49.604Z,6.01
2023-03-04T21:01:51.045Z,6.09
2023-03-04T21:06:55.200Z,6.10
2023-03-04T21:11:56.568Z,6.07
2023-03-04T21:16:59.171Z,6.01
2023-03-04T21:22:01.520Z,6.19
2023-03-04T21:27:03.046Z,6.06
2023-03-04T21:32:21.134Z,6.10
2023-03-04T21:37:25.285Z,6.07
2023-03-04T21:42:26.657Z,6.03
2023-03-04T21:47:27.987Z,6.09
2023-03-04T21:52:29.757Z,6.01
2023-03-04T21:57:31.199Z,6.04
2023-03-04T22:02:32.601Z,5.98
2023-03-04T22:07:33.941Z,5.96
2023-03-04T22:12:35.270Z,5.96
2023-03-04T22:17:36.716Z,5.94
2023-03-04T22:22:38.070Z,6.00
2023-03-04T22:27:39.485Z,6.00
2023-03-04T22:32:43.823Z,5.93
2023-03-04T22:37:45.419Z,5.82
2023-03-04T22:42:47.426Z,5.88
2023-03-04T22:47:52.313Z,5.96
2023-03-04T22:52:53.879Z,5.93
2023-03-04T22:57:55.248Z,5.81
2023-03-04T23:02:57.242Z,5.77
2023-03-04T23:07:58.612Z,5.73
2023-03-04T23:13:00.002Z,5.79
2023-03-04T23:18:01.370Z,5.97
2023-03-04T23:23:02.746Z,5.92
2023-03-04T23:28:04.626Z,5.89
2023-03-04T23:33:06.064Z,5.86
2023-03-04T23:38:07.477Z,5.91
2023-03-04T23:43:08.900Z,5.91
2023-03-04T23:48:10.241Z,5.88
2023-03-04T23:53:11.629Z,5.81
2023-03-04T23:58:12.977Z,5.95
